Terminal Aerodrome Forecast
Issued by NWS Quad Cities IA IL

Home | Current Version | Previous Version | Text Only | Print | Product List | Glossary On
Versions: 1 2 3 4 5 6 7 8 9 10 11 12 13 14 15
000
FTUS43 KDVN 281100
TAFMLI
TAF
KMLI 281120Z 2812/2912 25005KT P6SM FEW250
     FM282200 29005KT P6SM FEW250
     FM290200 35003KT P6SM BKN250
     FM290500 05003KT P6SM SCT100 OVC200
     FM290800 06003KT P6SM OVC080=

USA.gov is the U.S. government's official web portal to all federal, state and local government web resources and services.